sensor_id;sensor_type;location;lat;lon;timestamp;P1;durP1;ratioP1;P2;durP2;ratioP2
63882;SDS011;50047;50.596;30.466;2023-07-09T00:02:03;2.90;;;1.70;;
63882;SDS011;50047;50.596;30.466;2023-07-09T00:04:31;3.80;;;1.80;;
63882;SDS011;50047;50.596;30.466;2023-07-09T00:07:01;3.20;;;2.00;;
63882;SDS011;50047;50.596;30.466;2023-07-09T00:09:31;5.00;;;2.10;;
63882;SDS011;50047;50.596;30.466;2023-07-09T00:11:59;4.40;;;1.90;;
63882;SDS011;50047;50.596;30.466;2023-07-09T00:14:27;3.20;;;2.00;;
63882;SDS011;50047;50.596;30.466;2023-07-09T00:16:55;2.90;;;1.30;;
63882;SDS011;50047;50.596;30.466;2023-07-09T00:19:22;5.00;;;1.60;;
63882;SDS011;50047;50.596;30.466;2023-07-09T00:21:51;3.10;;;1.60;;
63882;SDS011;50047;50.596;30.466;2023-07-09T00:24:21;3.10;;;1.80;;
63882;SDS011;50047;50.596;30.466;2023-07-09T00:26:50;6.50;;;1.80;;
63882;SDS011;50047;50.596;30.466;2023-07-09T00:29:18;3.20;;;1.80;;
63882;SDS011;50047;50.596;30.466;2023-07-09T00:31:46;5.90;;;1.80;;
63882;SDS011;50047;50.596;30.466;2023-07-09T00:34:14;4.80;;;2.00;;
63882;SDS011;50047;50.596;30.466;2023-07-09T00:36:45;3.40;;;1.80;;
63882;SDS011;50047;50.596;30.466;2023-07-09T00:39:17;2.60;;;1.70;;
63882;SDS011;50047;50.596;30.466;2023-07-09T00:41:46;4.60;;;1.70;;
63882;SDS011;50047;50.596;30.466;2023-07-09T00:49:32;2.20;;;1.40;;
63882;SDS011;50047;50.596;30.466;2023-07-09T00:52:07;3.40;;;1.50;;
63882;SDS011;50047;50.596;30.466;2023-07-09T00:54:50;4.40;;;1.60;;
63882;SDS011;50047;50.596;30.466;2023-07-09T00:57:21;2.80;;;1.70;;
63882;SDS011;50047;50.596;30.466;2023-07-09T00:59:55;2.70;;;1.60;;
63882;SDS011;50047;50.596;30.466;2023-07-09T01:02:26;2.80;;;1.60;;
63882;SDS011;50047;50.596;30.466;2023-07-09T01:04:57;3.30;;;1.60;;
63882;SDS011;50047;50.596;30.466;2023-07-09T01:07:30;5.80;;;1.80;;
63882;SDS011;50047;50.596;30.466;2023-07-09T01:09:58;5.70;;;1.90;;
63882;SDS011;50047;50.596;30.466;2023-07-09T01:12:26;4.00;;;1.50;;
63882;SDS011;50047;50.596;30.466;2023-07-09T01:14:54;2.60;;;1.70;;
63882;SDS011;50047;50.596;30.466;2023-07-09T01:17:27;4.00;;;1.90;;
63882;SDS011;50047;50.596;30.466;2023-07-09T01:19:56;6.30;;;1.90;;
63882;SDS011;50047;50.596;30.466;2023-07-09T01:22:24;2.60;;;1.70;;
63882;SDS011;50047;50.596;30.466;2023-07-09T01:24:57;3.10;;;1.90;;
63882;SDS011;50047;50.596;30.466;2023-07-09T01:27:43;3.40;;;2.00;;
63882;SDS011;50047;50.596;30.466;2023-07-09T01:30:15;6.30;;;1.90;;
63882;SDS011;50047;50.596;30.466;2023-07-09T01:32:51;2.50;;;1.80;;
63882;SDS011;50047;50.596;30.466;2023-07-09T01:35:23;5.80;;;1.80;;
63882;SDS011;50047;50.596;30.466;2023-07-09T01:37:53;2.90;;;1.80;;
63882;SDS011;50047;50.596;30.466;2023-07-09T01:40:22;8.30;;;2.10;;
63882;SDS011;50047;50.596;30.466;2023-07-09T01:43:00;6.90;;;1.50;;
63882;SDS011;50047;50.596;30.466;2023-07-09T01:45:29;5.50;;;1.50;;
63882;SDS011;50047;50.596;30.466;2023-07-09T01:47:56;2.60;;;1.70;;
63882;SDS011;50047;50.596;30.466;2023-07-09T01:50:25;3.70;;;1.50;;
63882;SDS011;50047;50.596;30.466;2023-07-09T01:52:56;4.80;;;1.90;;
63882;SDS011;50047;50.596;30.466;2023-07-09T01:55:25;3.10;;;1.60;;
63882;SDS011;50047;50.596;30.466;2023-07-09T01:57:56;3.00;;;1.80;;
63882;SDS011;50047;50.596;30.466;2023-07-09T02:00:24;3.80;;;1.80;;
63882;SDS011;50047;50.596;30.466;2023-07-09T02:02:52;3.60;;;2.00;;
63882;SDS011;50047;50.596;30.466;2023-07-09T02:05:22;3.40;;;1.80;;
63882;SDS011;50047;50.596;30.466;2023-07-09T02:07:50;3.40;;;2.00;;
63882;SDS011;50047;50.596;30.466;2023-07-09T02:10:22;2.40;;;1.60;;
63882;SDS011;50047;50.596;30.466;2023-07-09T02:12:50;5.50;;;1.90;;
63882;SDS011;50047;50.596;30.466;2023-07-09T02:15:18;4.30;;;1.90;;
63882;SDS011;50047;50.596;30.466;2023-07-09T02:17:46;4.10;;;2.10;;
63882;SDS011;50047;50.596;30.466;2023-07-09T02:20:14;2.10;;;1.70;;
63882;SDS011;50047;50.596;30.466;2023-07-09T02:22:42;3.50;;;1.80;;
63882;SDS011;50047;50.596;30.466;2023-07-09T02:25:11;3.50;;;1.50;;
63882;SDS011;50047;50.596;30.466;2023-07-09T02:27:39;2.40;;;1.50;;
63882;SDS011;50047;50.596;30.466;2023-07-09T02:30:07;3.60;;;1.70;;
63882;SDS011;50047;50.596;30.466;2023-07-09T02:32:37;3.00;;;1.80;;
63882;SDS011;50047;50.596;30.466;2023-07-09T02:35:04;2.70;;;1.70;;
63882;SDS011;50047;50.596;30.466;2023-07-09T02:37:32;4.50;;;2.00;;
63882;SDS011;50047;50.596;30.466;2023-07-09T02:40:00;4.30;;;2.30;;
63882;SDS011;50047;50.596;30.466;2023-07-09T02:42:28;4.90;;;2.00;;
63882;SDS011;50047;50.596;30.466;2023-07-09T02:44:56;3.70;;;2.20;;
63882;SDS011;50047;50.596;30.466;2023-07-09T02:47:25;2.70;;;1.70;;
63882;SDS011;50047;50.596;30.466;2023-07-09T02:49:53;4.90;;;1.90;;
63882;SDS011;50047;50.596;30.466;2023-07-09T02:52:22;2.80;;;1.90;;
63882;SDS011;50047;50.596;30.466;2023-07-09T02:54:49;3.00;;;1.90;;
63882;SDS011;50047;50.596;30.466;2023-07-09T02:57:17;5.20;;;2.00;;
63882;SDS011;50047;50.596;30.466;2023-07-09T02:59:45;5.90;;;1.90;;
63882;SDS011;50047;50.596;30.466;2023-07-09T03:02:13;3.20;;;2.00;;
63882;SDS011;50047;50.596;30.466;2023-07-09T03:04:41;4.60;;;2.10;;
63882;SDS011;50047;50.596;30.466;2023-07-09T03:07:08;4.40;;;2.00;;
63882;SDS011;50047;50.596;30.466;2023-07-09T03:09:36;3.40;;;1.80;;
63882;SDS011;50047;50.596;30.466;2023-07-09T03:12:04;2.90;;;1.90;;
63882;SDS011;50047;50.596;30.466;2023-07-09T03:14:33;3.60;;;2.10;;
63882;SDS011;50047;50.596;30.466;2023-07-09T03:17:00;4.40;;;2.10;;
63882;SDS011;50047;50.596;30.466;2023-07-09T03:19:28;2.90;;;2.10;;
63882;SDS011;50047;50.596;30.466;2023-07-09T03:21:56;3.40;;;2.00;;
63882;SDS011;50047;50.596;30.466;2023-07-09T03:24:24;3.30;;;1.90;;
63882;SDS011;50047;50.596;30.466;2023-07-09T03:26:52;5.40;;;2.00;;
63882;SDS011;50047;50.596;30.466;2023-07-09T03:29:19;5.40;;;2.10;;
63882;SDS011;50047;50.596;30.466;2023-07-09T03:31:47;3.60;;;1.80;;
63882;SDS011;50047;50.596;30.466;2023-07-09T03:34:17;4.00;;;2.00;;
63882;SDS011;50047;50.596;30.466;2023-07-09T03:36:45;2.50;;;1.70;;
63882;SDS011;50047;50.596;30.466;2023-07-09T03:39:13;2.20;;;1.60;;
63882;SDS011;50047;50.596;30.466;2023-07-09T03:41:40;2.50;;;1.70;;
63882;SDS011;50047;50.596;30.466;2023-07-09T03:44:08;6.70;;;1.90;;
63882;SDS011;50047;50.596;30.466;2023-07-09T03:46:36;4.40;;;1.80;;
63882;SDS011;50047;50.596;30.466;2023-07-09T03:49:04;5.10;;;1.90;;
63882;SDS011;50047;50.596;30.466;2023-07-09T03:51:31;3.60;;;1.70;;
63882;SDS011;50047;50.596;30.466;2023-07-09T03:53:59;1.80;;;1.40;;
63882;SDS011;50047;50.596;30.466;2023-07-09T03:56:27;3.60;;;1.90;;
63882;SDS011;50047;50.596;30.466;2023-07-09T03:58:55;2.70;;;1.50;;
63882;SDS011;50047;50.596;30.466;2023-07-09T04:01:23;3.30;;;1.80;;
63882;SDS011;50047;50.596;30.466;2023-07-09T04:03:51;5.20;;;2.00;;
63882;SDS011;50047;50.596;30.466;2023-07-09T04:06:18;3.60;;;1.90;;
63882;SDS011;50047;50.596;30.466;2023-07-09T04:08:46;4.10;;;2.00;;
63882;SDS011;50047;50.596;30.466;2023-07-09T04:11:14;2.60;;;1.80;;
63882;SDS011;50047;50.596;30.466;2023-07-09T04:13:41;4.90;;;1.70;;
63882;SDS011;50047;50.596;30.466;2023-07-09T04:16:09;4.00;;;1.80;;
63882;SDS011;50047;50.596;30.466;2023-07-09T04:18:38;6.60;;;1.50;;
63882;SDS011;50047;50.596;30.466;2023-07-09T04:21:05;3.90;;;1.90;;
63882;SDS011;50047;50.596;30.466;2023-07-09T04:23:33;5.30;;;2.10;;
63882;SDS011;50047;50.596;30.466;2023-07-09T04:26:01;2.50;;;1.70;;
63882;SDS011;50047;50.596;30.466;2023-07-09T04:28:30;3.20;;;2.00;;
63882;SDS011;50047;50.596;30.466;2023-07-09T04:30:58;3.20;;;1.90;;
63882;SDS011;50047;50.596;30.466;2023-07-09T04:33:26;4.70;;;1.80;;
63882;SDS011;50047;50.596;30.466;2023-07-09T04:35:55;2.40;;;1.70;;
63882;SDS011;50047;50.596;30.466;2023-07-09T04:38:23;4.10;;;2.00;;
63882;SDS011;50047;50.596;30.466;2023-07-09T04:40:51;3.60;;;2.00;;
63882;SDS011;50047;50.596;30.466;2023-07-09T04:43:18;4.00;;;2.20;;
63882;SDS011;50047;50.596;30.466;2023-07-09T04:45:46;5.60;;;2.30;;
63882;SDS011;50047;50.596;30.466;2023-07-09T04:48:15;4.50;;;2.00;;
63882;SDS011;50047;50.596;30.466;2023-07-09T04:50:43;4.30;;;2.00;;
63882;SDS011;50047;50.596;30.466;2023-07-09T04:53:11;2.10;;;1.70;;
63882;SDS011;50047;50.596;30.466;2023-07-09T04:55:39;3.50;;;1.90;;
63882;SDS011;50047;50.596;30.466;2023-07-09T04:58:07;6.00;;;1.80;;
63882;SDS011;50047;50.596;30.466;2023-07-09T05:00:34;3.50;;;1.60;;
63882;SDS011;50047;50.596;30.466;2023-07-09T05:03:02;3.40;;;1.90;;
63882;SDS011;50047;50.596;30.466;2023-07-09T05:05:30;2.50;;;1.70;;
63882;SDS011;50047;50.596;30.466;2023-07-09T05:07:58;3.70;;;1.50;;
63882;SDS011;50047;50.596;30.466;2023-07-09T05:10:26;2.70;;;1.70;;
63882;SDS011;50047;50.596;30.466;2023-07-09T05:12:54;2.90;;;1.80;;
63882;SDS011;50047;50.596;30.466;2023-07-09T05:15:22;4.20;;;1.60;;
63882;SDS011;50047;50.596;30.466;2023-07-09T05:17:50;3.60;;;1.90;;
63882;SDS011;50047;50.596;30.466;2023-07-09T05:20:19;5.10;;;1.70;;
63882;SDS011;50047;50.596;30.466;2023-07-09T05:22:48;3.00;;;1.60;;
63882;SDS011;50047;50.596;30.466;2023-07-09T05:25:16;3.30;;;1.70;;
63882;SDS011;50047;50.596;30.466;2023-07-09T05:27:44;3.60;;;1.60;;
63882;SDS011;50047;50.596;30.466;2023-07-09T05:30:12;3.40;;;1.70;;
63882;SDS011;50047;50.596;30.466;2023-07-09T05:32:40;5.20;;;1.90;;
63882;SDS011;50047;50.596;30.466;2023-07-09T05:35:07;3.50;;;1.80;;
63882;SDS011;50047;50.596;30.466;2023-07-09T05:37:36;2.70;;;1.60;;
63882;SDS011;50047;50.596;30.466;2023-07-09T05:40:04;3.80;;;1.60;;
63882;SDS011;50047;50.596;30.466;2023-07-09T05:42:33;3.90;;;1.90;;
63882;SDS011;50047;50.596;30.466;2023-07-09T05:45:01;4.30;;;1.70;;
63882;SDS011;50047;50.596;30.466;2023-07-09T05:47:29;2.90;;;1.50;;
63882;SDS011;50047;50.596;30.466;2023-07-09T05:49:57;4.50;;;1.80;;
63882;SDS011;50047;50.596;30.466;2023-07-09T05:52:24;2.90;;;1.50;;
63882;SDS011;50047;50.596;30.466;2023-07-09T05:54:52;3.10;;;1.40;;
63882;SDS011;50047;50.596;30.466;2023-07-09T05:57:20;2.80;;;1.40;;
63882;SDS011;50047;50.596;30.466;2023-07-09T05:59:48;2.30;;;1.40;;
63882;SDS011;50047;50.596;30.466;2023-07-09T06:02:17;2.30;;;1.50;;
63882;SDS011;50047;50.596;30.466;2023-07-09T06:04:47;9.30;;;1.60;;
63882;SDS011;50047;50.596;30.466;2023-07-09T06:07:18;2.90;;;1.40;;
63882;SDS011;50047;50.596;30.466;2023-07-09T06:09:46;5.10;;;1.50;;
63882;SDS011;50047;50.596;30.466;2023-07-09T06:12:15;3.00;;;1.40;;
63882;SDS011;50047;50.596;30.466;2023-07-09T06:14:43;3.60;;;1.60;;
63882;SDS011;50047;50.596;30.466;2023-07-09T06:17:10;2.50;;;1.40;;
63882;SDS011;50047;50.596;30.466;2023-07-09T06:19:39;2.90;;;1.50;;
63882;SDS011;50047;50.596;30.466;2023-07-09T06:22:07;3.30;;;1.50;;
63882;SDS011;50047;50.596;30.466;2023-07-09T06:24:34;5.60;;;1.60;;
63882;SDS011;50047;50.596;30.466;2023-07-09T06:27:02;4.30;;;1.30;;
63882;SDS011;50047;50.596;30.466;2023-07-09T06:29:30;2.60;;;1.40;;
63882;SDS011;50047;50.596;30.466;2023-07-09T06:31:58;5.00;;;1.40;;
63882;SDS011;50047;50.596;30.466;2023-07-09T06:34:26;3.40;;;1.70;;
63882;SDS011;50047;50.596;30.466;2023-07-09T06:36:53;3.20;;;1.70;;
63882;SDS011;50047;50.596;30.466;2023-07-09T06:39:21;3.50;;;1.50;;
63882;SDS011;50047;50.596;30.466;2023-07-09T06:41:49;3.10;;;1.70;;
63882;SDS011;50047;50.596;30.466;2023-07-09T06:44:46;2.10;;;1.30;;
63882;SDS011;50047;50.596;30.466;2023-07-09T06:47:14;3.30;;;1.50;;
63882;SDS011;50047;50.596;30.466;2023-07-09T06:49:42;3.40;;;1.20;;
63882;SDS011;50047;50.596;30.466;2023-07-09T06:52:10;1.80;;;1.20;;
63882;SDS011;50047;50.596;30.466;2023-07-09T06:54:37;4.00;;;1.50;;
63882;SDS011;50047;50.596;30.466;2023-07-09T06:57:05;3.90;;;1.60;;
63882;SDS011;50047;50.596;30.466;2023-07-09T06:59:33;2.00;;;1.40;;
63882;SDS011;50047;50.596;30.466;2023-07-09T07:02:00;4.60;;;1.30;;
63882;SDS011;50047;50.596;30.466;2023-07-09T07:04:28;2.20;;;1.40;;
63882;SDS011;50047;50.596;30.466;2023-07-09T07:06:56;3.90;;;1.30;;
63882;SDS011;50047;50.596;30.466;2023-07-09T07:09:24;2.40;;;1.40;;
63882;SDS011;50047;50.596;30.466;2023-07-09T07:11:52;3.10;;;1.30;;
63882;SDS011;50047;50.596;30.466;2023-07-09T07:14:20;2.90;;;1.40;;
63882;SDS011;50047;50.596;30.466;2023-07-09T07:16:47;2.50;;;1.50;;
63882;SDS011;50047;50.596;30.466;2023-07-09T07:19:16;3.30;;;1.30;;
63882;SDS011;50047;50.596;30.466;2023-07-09T07:21:43;2.00;;;1.40;;
63882;SDS011;50047;50.596;30.466;2023-07-09T07:24:11;2.30;;;1.40;;
63882;SDS011;50047;50.596;30.466;2023-07-09T07:26:40;2.60;;;1.50;;
63882;SDS011;50047;50.596;30.466;2023-07-09T07:29:07;2.00;;;1.10;;
63882;SDS011;50047;50.596;30.466;2023-07-09T07:31:35;4.00;;;1.60;;
63882;SDS011;50047;50.596;30.466;2023-07-09T07:34:03;2.70;;;1.40;;
63882;SDS011;50047;50.596;30.466;2023-07-09T07:36:30;4.30;;;1.40;;
63882;SDS011;50047;50.596;30.466;2023-07-09T07:39:05;2.80;;;1.40;;
63882;SDS011;50047;50.596;30.466;2023-07-09T07:41:33;3.10;;;1.30;;
63882;SDS011;50047;50.596;30.466;2023-07-09T07:44:00;4.20;;;1.40;;
63882;SDS011;50047;50.596;30.466;2023-07-09T07:46:28;2.30;;;1.40;;
63882;SDS011;50047;50.596;30.466;2023-07-09T07:51:27;2.40;;;1.30;;
63882;SDS011;50047;50.596;30.466;2023-07-09T07:53:55;2.60;;;1.20;;
63882;SDS011;50047;50.596;30.466;2023-07-09T07:56:23;3.80;;;1.50;;
63882;SDS011;50047;50.596;30.466;2023-07-09T08:02:31;4.60;;;1.60;;
63882;SDS011;50047;50.596;30.466;2023-07-09T08:05:00;3.70;;;1.40;;
63882;SDS011;50047;50.596;30.466;2023-07-09T08:07:28;3.20;;;1.20;;
63882;SDS011;50047;50.596;30.466;2023-07-09T08:09:57;2.90;;;1.40;;
63882;SDS011;50047;50.596;30.466;2023-07-09T08:12:26;3.80;;;1.20;;
63882;SDS011;50047;50.596;30.466;2023-07-09T08:14:54;5.70;;;1.50;;
63882;SDS011;50047;50.596;30.466;2023-07-09T08:17:22;3.10;;;1.30;;
63882;SDS011;50047;50.596;30.466;2023-07-09T08:19:51;3.20;;;1.20;;
63882;SDS011;50047;50.596;30.466;2023-07-09T08:22:21;3.10;;;1.30;;
63882;SDS011;50047;50.596;30.466;2023-07-09T08:24:49;3.90;;;1.30;;
63882;SDS011;50047;50.596;30.466;2023-07-09T08:27:17;4.30;;;1.30;;
63882;SDS011;50047;50.596;30.466;2023-07-09T08:29:46;3.20;;;1.50;;
63882;SDS011;50047;50.596;30.466;2023-07-09T08:32:14;2.30;;;1.40;;
63882;SDS011;50047;50.596;30.466;2023-07-09T08:34:42;3.40;;;1.30;;
63882;SDS011;50047;50.596;30.466;2023-07-09T08:37:30;4.20;;;1.30;;
63882;SDS011;50047;50.596;30.466;2023-07-09T08:39:58;1.70;;;1.20;;
63882;SDS011;50047;50.596;30.466;2023-07-09T08:42:31;2.40;;;1.40;;
63882;SDS011;50047;50.596;30.466;2023-07-09T08:45:28;2.20;;;1.20;;
63882;SDS011;50047;50.596;30.466;2023-07-09T08:50:54;4.80;;;1.30;;
63882;SDS011;50047;50.596;30.466;2023-07-09T08:53:38;2.30;;;1.30;;
63882;SDS011;50047;50.596;30.466;2023-07-09T08:58:37;2.90;;;1.40;;
63882;SDS011;50047;50.596;30.466;2023-07-09T09:01:12;3.20;;;1.20;;
63882;SDS011;50047;50.596;30.466;2023-07-09T09:03:49;1.60;;;1.00;;
63882;SDS011;50047;50.596;30.466;2023-07-09T09:06:21;4.60;;;1.70;;
63882;SDS011;50047;50.596;30.466;2023-07-09T09:11:43;4.30;;;1.30;;
63882;SDS011;50047;50.596;30.466;2023-07-09T09:16:50;2.00;;;1.10;;
63882;SDS011;50047;50.596;30.466;2023-07-09T09:19:25;1.90;;;1.20;;
63882;SDS011;50047;50.596;30.466;2023-07-09T09:22:08;2.40;;;1.20;;
63882;SDS011;50047;50.596;30.466;2023-07-09T09:27:49;1.90;;;1.10;;
63882;SDS011;50047;50.596;30.466;2023-07-09T09:30:19;3.60;;;1.30;;
63882;SDS011;50047;50.596;30.466;2023-07-09T09:35:24;6.20;;;1.30;;
63882;SDS011;50047;50.596;30.466;2023-07-09T09:37:56;1.80;;;1.20;;
63882;SDS011;50047;50.596;30.466;2023-07-09T09:40:27;3.90;;;1.20;;
63882;SDS011;50047;50.596;30.466;2023-07-09T09:42:57;2.90;;;1.40;;
63882;SDS011;50047;50.596;30.466;2023-07-09T09:45:28;2.70;;;1.30;;
63882;SDS011;50047;50.596;30.466;2023-07-09T09:48:05;2.00;;;1.20;;
63882;SDS011;50047;50.596;30.466;2023-07-09T09:50:58;3.60;;;1.20;;
63882;SDS011;50047;50.596;30.466;2023-07-09T09:53:30;3.10;;;1.10;;
63882;SDS011;50047;50.596;30.466;2023-07-09T09:56:06;1.50;;;1.00;;
63882;SDS011;50047;50.596;30.466;2023-07-09T09:58:41;3.10;;;1.20;;
63882;SDS011;50047;50.596;30.466;2023-07-09T10:01:14;3.50;;;1.40;;
63882;SDS011;50047;50.596;30.466;2023-07-09T10:03:46;2.10;;;1.30;;
63882;SDS011;50047;50.596;30.466;2023-07-09T10:06:19;2.30;;;1.30;;
63882;SDS011;50047;50.596;30.466;2023-07-09T10:08:55;2.90;;;0.90;;
63882;SDS011;50047;50.596;30.466;2023-07-09T10:11:46;1.30;;;1.00;;
63882;SDS011;50047;50.596;30.466;2023-07-09T10:23:12;2.60;;;1.20;;
63882;SDS011;50047;50.596;30.466;2023-07-09T10:28:43;3.30;;;1.20;;
63882;SDS011;50047;50.596;30.466;2023-07-09T10:37:00;1.90;;;1.20;;
63882;SDS011;50047;50.596;30.466;2023-07-09T10:39:40;1.90;;;1.10;;
63882;SDS011;50047;50.596;30.466;2023-07-09T10:42:17;5.00;;;1.40;;
63882;SDS011;50047;50.596;30.466;2023-07-09T10:45:01;1.80;;;1.20;;
63882;SDS011;50047;50.596;30.466;2023-07-09T10:47:40;6.00;;;1.30;;
63882;SDS011;50047;50.596;30.466;2023-07-09T10:50:20;3.60;;;1.30;;
63882;SDS011;50047;50.596;30.466;2023-07-09T10:52:59;2.00;;;1.10;;
63882;SDS011;50047;50.596;30.466;2023-07-09T10:58:36;2.40;;;1.30;;
63882;SDS011;50047;50.596;30.466;2023-07-09T11:01:29;1.70;;;1.20;;
63882;SDS011;50047;50.596;30.466;2023-07-09T11:04:33;3.50;;;1.30;;
63882;SDS011;50047;50.596;30.466;2023-07-09T11:07:10;2.60;;;1.50;;
63882;SDS011;50047;50.596;30.466;2023-07-09T11:09:42;3.30;;;1.40;;
63882;SDS011;50047;50.596;30.466;2023-07-09T11:12:15;1.60;;;1.30;;
63882;SDS011;50047;50.596;30.466;2023-07-09T11:15:02;2.50;;;1.30;;
63882;SDS011;50047;50.596;30.466;2023-07-09T11:17:36;4.00;;;1.70;;
63882;SDS011;50047;50.596;30.466;2023-07-09T11:23:20;1.90;;;1.10;;
63882;SDS011;50047;50.596;30.466;2023-07-09T11:26:02;1.60;;;1.20;;
63882;SDS011;50047;50.596;30.466;2023-07-09T11:28:34;2.40;;;1.30;;
63882;SDS011;50047;50.596;30.466;2023-07-09T11:31:07;2.60;;;1.30;;
63882;SDS011;50047;50.596;30.466;2023-07-09T11:33:47;3.40;;;1.40;;
63882;SDS011;50047;50.596;30.466;2023-07-09T11:36:26;2.90;;;1.30;;
63882;SDS011;50047;50.596;30.466;2023-07-09T11:38:56;2.80;;;1.30;;
63882;SDS011;50047;50.596;30.466;2023-07-09T11:44:09;3.40;;;1.30;;
63882;SDS011;50047;50.596;30.466;2023-07-09T11:49:34;2.50;;;1.30;;
63882;SDS011;50047;50.596;30.466;2023-07-09T11:52:14;1.90;;;1.10;;
63882;SDS011;50047;50.596;30.466;2023-07-09T11:54:47;2.40;;;1.20;;
63882;SDS011;50047;50.596;30.466;2023-07-09T11:57:14;2.50;;;1.10;;
63882;SDS011;50047;50.596;30.466;2023-07-09T11:59:42;4.20;;;1.30;;
63882;SDS011;50047;50.596;30.466;2023-07-09T12:02:20;1.60;;;1.20;;
63882;SDS011;50047;50.596;30.466;2023-07-09T12:04:49;2.00;;;1.40;;
63882;SDS011;50047;50.596;30.466;2023-07-09T12:07:20;2.10;;;1.20;;
63882;SDS011;50047;50.596;30.466;2023-07-09T12:09:50;1.40;;;1.10;;
63882;SDS011;50047;50.596;30.466;2023-07-09T12:12:26;1.80;;;1.30;;
63882;SDS011;50047;50.596;30.466;2023-07-09T12:14:55;3.40;;;1.30;;
63882;SDS011;50047;50.596;30.466;2023-07-09T12:17:23;2.30;;;1.30;;
63882;SDS011;50047;50.596;30.466;2023-07-09T12:19:54;6.30;;;1.20;;
63882;SDS011;50047;50.596;30.466;2023-07-09T12:22:22;2.80;;;1.20;;
63882;SDS011;50047;50.596;30.466;2023-07-09T12:24:50;1.90;;;1.40;;
63882;SDS011;50047;50.596;30.466;2023-07-09T12:27:22;4.80;;;1.60;;
63882;SDS011;50047;50.596;30.466;2023-07-09T12:29:53;1.70;;;1.40;;
63882;SDS011;50047;50.596;30.466;2023-07-09T12:32:23;2.10;;;1.30;;
63882;SDS011;50047;50.596;30.466;2023-07-09T12:34:55;5.30;;;1.50;;
63882;SDS011;50047;50.596;30.466;2023-07-09T12:37:24;4.00;;;1.80;;
63882;SDS011;50047;50.596;30.466;2023-07-09T12:39:55;4.70;;;1.30;;
63882;SDS011;50047;50.596;30.466;2023-07-09T12:42:31;3.00;;;1.30;;
63882;SDS011;50047;50.596;30.466;2023-07-09T12:45:01;3.20;;;1.20;;
63882;SDS011;50047;50.596;30.466;2023-07-09T12:47:29;4.00;;;1.60;;
63882;SDS011;50047;50.596;30.466;2023-07-09T12:50:01;4.10;;;1.30;;
63882;SDS011;50047;50.596;30.466;2023-07-09T12:52:47;1.70;;;1.40;;
63882;SDS011;50047;50.596;30.466;2023-07-09T12:55:20;2.20;;;1.50;;
63882;SDS011;50047;50.596;30.466;2023-07-09T12:57:51;2.90;;;1.20;;
63882;SDS011;50047;50.596;30.466;2023-07-09T13:00:22;2.00;;;1.20;;
63882;SDS011;50047;50.596;30.466;2023-07-09T13:05:23;3.80;;;1.30;;
63882;SDS011;50047;50.596;30.466;2023-07-09T13:07:58;3.50;;;1.20;;
63882;SDS011;50047;50.596;30.466;2023-07-09T13:10:29;1.90;;;1.10;;
63882;SDS011;50047;50.596;30.466;2023-07-09T13:13:01;2.70;;;1.20;;
63882;SDS011;50047;50.596;30.466;2023-07-09T13:15:38;2.10;;;1.30;;
63882;SDS011;50047;50.596;30.466;2023-07-09T13:18:10;2.80;;;1.70;;
63882;SDS011;50047;50.596;30.466;2023-07-09T13:20:44;3.90;;;1.80;;
63882;SDS011;50047;50.596;30.466;2023-07-09T13:23:17;4.50;;;1.70;;
63882;SDS011;50047;50.596;30.466;2023-07-09T13:25:46;2.30;;;1.40;;
63882;SDS011;50047;50.596;30.466;2023-07-09T13:28:16;3.10;;;1.20;;
63882;SDS011;50047;50.596;30.466;2023-07-09T13:30:46;2.00;;;1.20;;
63882;SDS011;50047;50.596;30.466;2023-07-09T13:33:14;5.70;;;1.20;;
63882;SDS011;50047;50.596;30.466;2023-07-09T13:35:43;2.50;;;1.20;;
63882;SDS011;50047;50.596;30.466;2023-07-09T13:38:12;1.40;;;1.20;;
63882;SDS011;50047;50.596;30.466;2023-07-09T13:40:45;2.20;;;1.30;;
63882;SDS011;50047;50.596;30.466;2023-07-09T13:43:18;7.00;;;2.10;;
63882;SDS011;50047;50.596;30.466;2023-07-09T13:45:54;5.20;;;2.40;;
63882;SDS011;50047;50.596;30.466;2023-07-09T13:48:24;3.50;;;2.70;;
63882;SDS011;50047;50.596;30.466;2023-07-09T13:50:53;4.70;;;2.80;;
63882;SDS011;50047;50.596;30.466;2023-07-09T13:53:23;8.50;;;4.70;;
63882;SDS011;50047;50.596;30.466;2023-07-09T13:58:23;3.70;;;2.50;;
63882;SDS011;50047;50.596;30.466;2023-07-09T14:00:59;4.90;;;2.50;;
63882;SDS011;50047;50.596;30.466;2023-07-09T14:03:41;4.40;;;2.70;;
63882;SDS011;50047;50.596;30.466;2023-07-09T14:06:13;7.60;;;2.40;;
63882;SDS011;50047;50.596;30.466;2023-07-09T14:08:43;3.90;;;2.00;;
63882;SDS011;50047;50.596;30.466;2023-07-09T14:11:12;2.60;;;1.60;;
63882;SDS011;50047;50.596;30.466;2023-07-09T14:13:44;2.40;;;1.30;;
63882;SDS011;50047;50.596;30.466;2023-07-09T14:16:12;1.70;;;1.20;;
63882;SDS011;50047;50.596;30.466;2023-07-09T14:18:42;2.90;;;1.50;;
63882;SDS011;50047;50.596;30.466;2023-07-09T14:21:12;3.80;;;1.50;;
63882;SDS011;50047;50.596;30.466;2023-07-09T14:23:41;2.00;;;1.40;;
63882;SDS011;50047;50.596;30.466;2023-07-09T14:26:10;2.80;;;1.30;;
63882;SDS011;50047;50.596;30.466;2023-07-09T14:28:38;1.80;;;1.40;;
63882;SDS011;50047;50.596;30.466;2023-07-09T14:31:24;2.70;;;1.70;;
63882;SDS011;50047;50.596;30.466;2023-07-09T14:33:56;3.60;;;1.80;;
63882;SDS011;50047;50.596;30.466;2023-07-09T14:36:38;3.10;;;1.70;;
63882;SDS011;50047;50.596;30.466;2023-07-09T14:39:09;2.00;;;1.40;;
63882;SDS011;50047;50.596;30.466;2023-07-09T14:41:37;9.20;;;1.50;;
63882;SDS011;50047;50.596;30.466;2023-07-09T14:44:25;3.70;;;1.60;;
63882;SDS011;50047;50.596;30.466;2023-07-09T14:46:58;3.00;;;1.40;;
63882;SDS011;50047;50.596;30.466;2023-07-09T14:49:27;2.90;;;1.90;;
63882;SDS011;50047;50.596;30.466;2023-07-09T14:51:57;2.50;;;1.40;;
63882;SDS011;50047;50.596;30.466;2023-07-09T14:54:26;3.90;;;1.60;;
63882;SDS011;50047;50.596;30.466;2023-07-09T14:56:57;3.30;;;1.40;;
63882;SDS011;50047;50.596;30.466;2023-07-09T14:59:25;1.60;;;1.30;;
63882;SDS011;50047;50.596;30.466;2023-07-09T15:01:53;2.70;;;1.60;;
63882;SDS011;50047;50.596;30.466;2023-07-09T15:06:55;3.50;;;1.90;;
63882;SDS011;50047;50.596;30.466;2023-07-09T15:09:25;3.80;;;1.80;;
63882;SDS011;50047;50.596;30.466;2023-07-09T15:11:54;4.80;;;1.60;;
63882;SDS011;50047;50.596;30.466;2023-07-09T15:14:25;2.50;;;1.50;;
63882;SDS011;50047;50.596;30.466;2023-07-09T15:16:53;2.50;;;1.40;;
63882;SDS011;50047;50.596;30.466;2023-07-09T15:19:27;1.60;;;1.20;;
63882;SDS011;50047;50.596;30.466;2023-07-09T15:21:54;1.90;;;1.20;;
63882;SDS011;50047;50.596;30.466;2023-07-09T15:26:59;2.60;;;1.30;;
63882;SDS011;50047;50.596;30.466;2023-07-09T15:29:28;2.80;;;1.20;;
63882;SDS011;50047;50.596;30.466;2023-07-09T15:31:57;2.20;;;1.10;;
63882;SDS011;50047;50.596;30.466;2023-07-09T15:34:26;1.60;;;1.30;;
63882;SDS011;50047;50.596;30.466;2023-07-09T15:36:54;1.60;;;1.10;;
63882;SDS011;50047;50.596;30.466;2023-07-09T15:39:22;2.70;;;1.10;;
63882;SDS011;50047;50.596;30.466;2023-07-09T15:41:49;4.40;;;1.30;;
63882;SDS011;50047;50.596;30.466;2023-07-09T15:44:18;4.90;;;1.20;;
63882;SDS011;50047;50.596;30.466;2023-07-09T15:46:51;3.30;;;1.40;;
63882;SDS011;50047;50.596;30.466;2023-07-09T15:49:24;5.10;;;1.30;;
63882;SDS011;50047;50.596;30.466;2023-07-09T15:53:59;2.00;;;1.10;;
63882;SDS011;50047;50.596;30.466;2023-07-09T15:56:27;3.60;;;1.30;;
63882;SDS011;50047;50.596;30.466;2023-07-09T15:58:57;3.90;;;1.20;;
63882;SDS011;50047;50.596;30.466;2023-07-09T16:01:26;2.40;;;1.40;;
63882;SDS011;50047;50.596;30.466;2023-07-09T16:03:58;2.90;;;1.30;;